臺北終端管制區 - 松西席

SPECI RCSS 130833Z 29010KT 3000 -SHRA FEW012 FEW020TCU BKN030 BKN050 32/28 Q1010 NOSIG RMK 29011KT/R10 TCU N-E-SE A2984=

站台狀態:Offline
最後更新:2020-08-13 16:30:02